Monday, December 18, 2017, 5:15 PM EST
Back to Local

KMGW, Morgantown Muni-hart Field

Location: Morgantown, WV, United States Lat: 39.65
Local Time: 5:15 PM EST (22:15 GMT) Lon: -79.917
Time Zone: US/Eastern Elev: 1246 ft

Show me the last for .
Show Coded

Time T Td Feel RH Dir Speed Gust Alt SLP Vis Weather Sky Remarks
2017-12-18 16:53 43 41 40 92 190° 5 - 30.03 30.05 5 -DZ BKN010 OVC015 1-hr Precip Total: 0.01"
2017-12-18 16:36 43 41 40 92 190° 5 - 30.03 - 4 -DZ BKN006 OVC011 1-hr Precip Total: 0.01"
2017-12-18 16:25 44 42 - 92 - Calm - 30.03 - 2 -DZ BKN006 OVC011 1-hr Precip Total: 0.01"
2017-12-18 15:53 44 41 41 88 220° 6 - 30.03 30.05 3 -DZ OVC006 1-hr Precip Total: 0.01"
6-hr Precip Total (4pm): 0.01"
2017-12-18 15:22 44 41 42 88 220° 5 - 30.02 - 2 -DZ BKN006 OVC010 1-hr Precip Total: Trace
2017-12-18 14:53 44 41 40 88 220° 7 - 30.01 30.03 3 -DZ OVC008 1-hr Precip Total: Trace
2017-12-18 13:53 43 41 39 92 Variable 7 - 30.01 30.02 3 -DZ OVC007 1-hr Precip Total: Trace
2017-12-18 13:27 43 40 40 88 210° 5 - 30.02 - 2 -DZ OVC009 1-hr Precip Total: Trace
2017-12-18 13:14 44 40 41 85 200° 6 - 30.03 - 4 -DZ OVC009 1-hr Precip Total: Trace
2017-12-18 13:05 44 39 41 82 210° 6 - 30.03 - 4 HZ OVC011 None
2017-12-18 12:53 44 39 41 82 220° 6 - 30.04 30.05 8 OVC009 6-hr Min Temp (1pm): 39.0°F
6-hr Max Temp (1pm): 44.1°F
2017-12-18 11:53 43 39 38 85 190° 8 - 30.05 30.06 10 OVC008 None
2017-12-18 10:53 42 37 34 82 210° 7 17 30.08 30.10 10 OVC009 None
2017-12-18 10:07 42 38 37 85 200° 9 - 30.09 - 10 OVC009 None
2017-12-18 09:53 42 37 38 82 200° 6 - 30.08 30.10 10 OVC010 None
2017-12-18 08:53 40 37 36 89 200° 6 - 30.09 30.11 9 OVC006 None
2017-12-18 07:53 40 36 36 85 200° 6 - 30.11 30.13 10 OVC007 None
2017-12-18 06:53 39 36 35 88 200° 6 - 30.10 30.12 8 OVC006 6-hr Min Temp (7am): 39.0°F
6-hr Max Temp (7am): 41.0°F
2017-12-18 05:53 40 35 37 82 210° 5 - 30.10 30.12 10 OVC009 None
2017-12-18 04:53 40 35 38 82 200° 3 - 30.09 30.11 10 OVC009 None
2017-12-18 04:43 40 35 38 82 180° 3 - 30.09 - 10 OVC009 None
2017-12-18 01:53 41 32 36 70 220° 7 - 30.10 30.12 10 OVC018 None
2017-12-18 01:34 41 31 38 67 230° 5 - 30.10 - 10 BKN019 OVC036 None
2017-12-18 00:53 41 31 36 67 180° 8 - 30.10 30.12 10 FEW030 OVC038 6-hr Min Temp (1am): 39.0°F
6-hr Max Temp (1am): 42.1°F
2017-12-18 00:49 41 30 36 65 190° 7 - 30.10 - 10 FEW029 OVC038 None
2017-12-18 00:30 42 29 38 59 200° 7 - 30.11 - 10 BKN029 OVC038 None
2017-12-17 23:53 42 28 37 57 200° 8 - 30.12 30.14 10 OVC034 24-hr Min Temp (12am): 35.1°F
24-hr Max Temp (12am): 44.1°F
2017-12-17 22:53 41 28 38 59 200° 5 - 30.12 30.14 10 OVC046 None
2017-12-17 21:53 41 28 39 59 200° 3 - 30.12 30.14 10 OVC060 None
2017-12-17 20:53 39 30 - 69 - Calm - 30.13 30.15 10 OVC060 None
2017-12-17 19:53 40 30 - 67 - Calm - 30.14 30.16 10 OVC050 None
2017-12-17 18:53 40 30 - 67 - Calm - 30.13 30.16 10 FEW060 OVC075 1-hr Precip Total: Trace
6-hr Precip Total (7pm): 0.00"
6-hr Min Temp (7pm): 39.9°F
6-hr Max Temp (7pm): 44.1°F
2017-12-17 17:53 40 30 - 67 - Calm - 30.14 30.16 10 -RA SCT060 SCT070 OVC090 1-hr Precip Total: Trace

Support USWX by starting your Amazon purchase here.